Latest Weather Observations for Ferny Creek

IDV60901

Issued at 5:41 pm EST Monday 27 June 2016 (issued every 10 minutes, with the page automatically refreshed every 10 minutes)

About weather observations | Map of Melbourne area stations | Latest observations for Melbourne area | Other Formats
Station Details ID: 086266 Name: FERNY CREEK Lat: -37.87 Lon: 145.35 Height: 512.9 m
Data from the previous 72 hours. | See also: Recent months at Ferny Creek
Date/Time
EST
Temp
°C
App
Temp
°C
Dew
Point
°C
Rel
Hum
%
Delta-T
°C
Wind Press
QNH
hPa
Press
MSL
hPa
Rain since
9am
mm
Dir  Spd
km/h
Gust
km/h
Spd
kts
Gust
kts
27/05:30pm 6.0 4.6 5.6 97 0.2 WNW 2 4 1 2 1018.1 1018.8 1.2
27/05:00pm 6.0 3.9 5.6 97 0.2 NW 6 11 3 6 1017.7 1018.3 1.2
27/04:30pm 6.0 4.2 5.6 97 0.2 NW 4 9 2 5 1017.6 1018.2 1.2
27/04:00pm 5.9 4.1 5.5 97 0.2 WNW 4 9 2 5 1017.6 1018.2 1.2
27/03:30pm 5.8 4.4 5.4 97 0.2 WNW 2 4 1 2 1017.2 1017.8 1.2
27/03:00pm 5.7 3.5 5.3 97 0.2 NW 6 9 3 5 1017.0 1017.6 1.2
27/02:30pm 5.5 3.2 4.9 96 0.3 WNW 6 13 3 7 1016.7 1017.4 1.0
27/02:00pm 5.5 3.2 4.9 96 0.3 NW 6 9 3 5 1016.5 1017.2 1.0
27/01:30pm 5.4 3.1 4.8 96 0.3 WNW 6 9 3 5 1016.5 1017.2 1.0
27/01:00pm 5.2 2.9 4.6 96 0.3 NW 6 13 3 7 1016.5 1017.2 0.8
27/12:30pm 5.1 2.7 4.4 95 0.3 NW 6 13 3 7 1016.5 1017.2 0.8
27/12:00pm 5.0 2.6 4.1 94 0.4 NW 6 11 3 6 1016.7 1017.4 0.8
27/11:30am 5.0 2.6 4.1 94 0.4 NW 6 13 3 7 1016.9 1017.5 0.8
27/11:00am 4.9 2.4 4.0 94 0.4 NW 6 9 3 5 1017.0 1017.6 0.6
27/10:30am 4.4 2.6 3.5 94 0.4 NW 2 4 1 2 1017.2 1017.8 0.6
27/10:00am 4.3 2.1 3.4 94 0.4 NNW 4 7 2 4 1017.1 1017.7 0.6
27/09:30am 4.2 2.0 3.2 93 0.4 NW 4 9 2 5 1017.0 1017.6 0.2
27/09:00am 4.1 1.4 2.9 92 0.5 NW 6 9 3 5 1016.6 1017.3 0.2
27/08:30am 4.0 1.3 2.8 92 0.5 NW 6 9 3 5 1016.4 1017.0 0.2
27/08:00am 3.9 1.1 2.3 89 0.7 NW 6 13 3 7 1016.3 1016.9 0.0
27/07:30am 4.1 1.1 2.0 86 0.9 NW 7 15 4 8 1016.1 1016.7 0.0
27/07:00am 4.1 0.7 1.8 85 0.9 NW 9 20 5 11 1015.9 1016.5 0.0
27/06:30am 4.0 1.0 1.7 85 0.9 NW 7 17 4 9 1015.6 1016.2 0.0
27/06:00am 3.9 0.8 1.4 84 1.0 NW 7 13 4 7 1015.4 1016.0 0.0
27/05:30am 3.6 0.7 1.2 84 1.0 NW 6 17 3 9 1015.1 1015.7 0.0
27/05:00am 3.6 1.1 1.3 85 0.9 NNW 4 13 2 7 1015.0 1015.6 0.0
27/04:30am 3.3 0.7 1.0 85 0.9 NNW 4 7 2 4 1015.2 1015.8 0.0
27/04:00am 3.2 0.2 1.1 86 0.8 NNW 6 9 3 5 1015.1 1015.7 0.0
27/03:30am 3.5 0.9 1.2 85 0.9 NNW 4 9 2 5 1015.3 1015.9 0.0
27/03:00am 3.5 0.5 1.1 84 1.0 NNW 6 15 3 8 1015.2 1015.8 0.0
27/02:30am 3.6 0.6 1.0 83 1.0 NW 6 15 3 8 1015.3 1015.9 0.0
27/02:00am 3.8 0.8 1.0 82 1.1 NNW 6 17 3 9 1015.4 1016.0 0.0
27/01:30am 3.5 1.2 0.7 82 1.1 N 2 6 1 3 1015.4 1016.0 0.0
27/01:00am 3.5 0.8 0.4 80 1.2 NNW 4 13 2 7 1015.3 1015.9 0.0
27/12:30am 3.5 0.8 0.4 80 1.2 NNW 4 11 2 6 1015.4 1016.0 0.0
27/12:00am 3.1 0.4 0.0 80 1.2 N 4 9 2 5 1015.4 1016.0 0.0
 
Date/Time
EST
Temp
°C
App
Temp
°C
Dew
Point
°C
Rel
Hum
%
Delta-T
°C
Wind Press
QNH
hPa
Press
MSL
hPa
Rain since
9am
mm
Dir  Spd
km/h
Gust
km/h
Spd
kts
Gust
kts
26/11:30pm 3.3 0.2 0.2 80 1.2 NW 6 17 3 9 1015.3 1015.9 0.0
26/11:00pm 3.3 0.2 0.2 80 1.2 NNW 6 13 3 7 1015.3 1015.9 0.0
26/10:30pm 3.4 0.1 0.1 79 1.3 NW 7 15 4 8 1015.5 1016.1 0.0
26/10:00pm 3.2 0.1 0.1 80 1.2 NNW 6 13 3 7 1015.7 1016.3 0.0
26/09:30pm 3.4 0.3 0.3 80 1.2 N 6 11 3 6 1015.8 1016.4 0.0
26/09:00pm 3.4 0.6 -0.2 77 1.4 NNW 4 13 2 7 1016.1 1016.7 0.0
26/08:30pm 3.6 0.4 -0.6 74 1.6 NNW 6 15 3 8 1016.2 1016.8 0.0
26/08:00pm 3.7 0.9 -0.7 73 1.7 N 4 7 2 4 1016.1 1016.7 0.0
26/07:30pm 3.5 0.2 -0.9 73 1.7 N 6 15 3 8 1016.2 1016.8 0.0
26/07:00pm 3.7 0.5 -0.7 73 1.7 NNW 6 15 3 8 1016.2 1016.8 0.0
26/06:30pm 3.6 0.9 0.0 77 1.4 NNW 4 17 2 9 1016.1 1016.7 0.0
26/06:00pm 3.8 0.5 0.3 78 1.4 NNW 7 17 4 9 1015.9 1016.5 0.0
26/05:30pm 3.9 0.6 0.4 78 1.4 NNW 7 20 4 11 1015.7 1016.3 0.0
26/05:00pm 4.1 0.8 0.4 77 1.5 NNW 7 24 4 13 1015.8 1016.4 0.0
26/04:30pm 4.2 0.9 0.0 74 1.6 NNW 7 20 4 11 1015.9 1016.5 0.0
26/04:00pm 4.4 0.8 0.7 77 1.5 NNW 9 20 5 11 1015.9 1016.5 0.0
26/03:30pm 4.6 1.0 0.7 76 1.6 NNW 9 26 5 14 1015.9 1016.5 0.0
26/03:00pm 4.9 1.4 1.4 78 1.4 NNW 9 20 5 11 1016.0 1016.6 0.0
26/02:30pm 4.9 1.8 1.4 78 1.4 NNW 7 24 4 13 1016.2 1016.8 0.0
26/02:00pm 5.3 2.3 2.1 80 1.3 NNW 7 17 4 9 1016.4 1017.0 0.0
26/01:30pm 5.7 2.9 2.2 78 1.5 N 6 13 3 7 1016.4 1017.0 0.0
26/01:00pm 5.7 2.4 2.2 78 1.5 N 9 19 5 10 1016.9 1017.5 0.0
26/12:30pm 5.5 2.5 2.0 78 1.5 N 7 17 4 9 1017.0 1017.6 0.0
26/12:00pm 5.4 2.4 1.7 77 1.5 N 7 15 4 8 1017.4 1018.0 0.0
26/11:30am 5.2 2.2 1.9 79 1.4 N 7 17 4 9 1018.1 1018.8 0.0
26/11:00am 5.1 2.3 1.8 79 1.4 N 6 11 3 6 1018.5 1019.2 0.0
26/10:30am 5.2 2.3 1.7 78 1.4 N 6 13 3 7 1019.0 1019.6 0.0
26/10:00am 5.0 2.0 2.2 82 1.2 N 7 17 4 9 1019.1 1019.7 0.0
26/09:30am 5.3 2.4 2.8 84 1.1 N 7 17 4 9 1019.4 1020.0 0.0
26/09:00am 4.8 2.5 2.7 86 0.9 N 4 11 2 6 1019.6 1020.2 0.4
26/08:30am 4.3 2.0 2.7 89 0.7 NNW 4 7 2 4 1019.7 1020.3 0.4
26/08:00am 3.5 1.6 2.6 94 0.4 W 2 4 1 2 1019.6 1020.2 0.4
26/07:30am 2.7 1.0 1.7 93 0.4 CALM 0 0 0 0 1019.5 1020.1 0.2
26/07:00am 3.0 0.9 2.0 93 0.4 NNW 2 4 1 2 1019.5 1020.1 0.2
26/06:30am 3.0 0.9 2.0 93 0.4 NNW 2 4 1 2 1019.5 1020.1 0.2
26/06:00am 2.8 0.7 1.8 93 0.4 N 2 6 1 3 1019.6 1020.2 0.2
26/05:30am 3.1 1.1 2.2 94 0.4 NW 2 4 1 2 1019.5 1020.1 0.2
26/05:00am 2.9 0.5 2.2 95 0.3 NW 4 9 2 5 1019.4 1020.0 0.2
26/04:30am 2.8 1.1 1.9 94 0.4 CALM 0 2 0 1 1019.1 1019.7 0.2
26/04:00am 3.0 1.3 2.0 93 0.4 CALM 0 0 0 0 1019.1 1019.7 0.2
26/03:30am 3.5 1.9 2.5 93 0.4 CALM 0 2 0 1 1019.6 1020.2 0.2
26/03:00am 3.6 1.3 2.6 93 0.4 NW 4 9 2 5 1020.0 1020.7 0.2
26/02:30am 3.6 0.9 2.7 94 0.4 NW 6 9 3 5 1020.2 1020.9 0.2
26/02:00am 3.8 1.1 2.9 94 0.4 NW 6 11 3 6 1020.3 1021.0 0.2
26/01:30am 3.6 0.9 2.9 95 0.3 NW 6 9 3 5 1020.2 1020.9 0.2
26/01:00am 3.7 0.9 3.0 95 0.3 NW 7 11 4 6 1020.4 1021.1 0.2
26/12:30am 3.7 1.1 3.0 95 0.3 NW 6 7 3 4 1020.7 1021.4 0.2
26/12:00am 3.7 1.1 3.0 95 0.3 WNW 6 7 3 4 1020.6 1021.3 0.2
 
Date/Time
EST
Temp
°C
App
Temp
°C
Dew
Point
°C
Rel
Hum
%
Delta-T
°C
Wind Press
QNH
hPa
Press
MSL
hPa
Rain since
9am
mm
Dir  Spd
km/h
Gust
km/h
Spd
kts
Gust
kts
25/11:30pm 3.9 1.7 3.2 95 0.3 WNW 4 9 2 5 1021.0 1021.6 0.2
25/11:00pm 3.7 1.4 3.0 95 0.3 WNW 4 6 2 3 1021.2 1021.8 0.2
25/10:30pm 3.7 1.4 3.0 95 0.3 NW 4 6 2 3 1021.3 1021.9 0.2
25/10:00pm 3.5 1.6 2.8 95 0.3 W 2 4 1 2 1021.3 1021.9 0.2
25/09:30pm 3.8 1.6 3.1 95 0.3 W 4 4 2 2 1021.4 1022.0 0.2
25/09:00pm 4.0 2.1 3.1 94 0.4 WNW 2 4 1 2 1021.5 1022.2 0.2
25/08:30pm 4.1 1.5 3.2 94 0.4 NW 6 7 3 4 1021.5 1022.2 0.2
25/08:00pm 4.2 1.6 3.3 94 0.4 NW 6 7 3 4 1021.6 1022.3 0.2
25/07:30pm 4.2 2.0 3.3 94 0.4 NW 4 7 2 4 1021.7 1022.4 0.2
25/07:00pm 4.7 2.6 3.7 93 0.4 WNW 4 9 2 5 1021.8 1022.5 0.2
25/06:30pm 4.7 2.6 3.8 94 0.4 NW 4 6 2 3 1021.8 1022.5 0.2
25/06:00pm 5.1 3.8 4.1 93 0.4 CALM 0 0 0 0 1021.8 1022.5 0.2
25/05:30pm 5.3 4.0 4.1 92 0.5 CALM 0 0 0 0 1021.7 1022.4 0.2
25/05:00pm 5.6 4.4 4.4 92 0.5 CALM 0 0 0 0 1021.4 1022.0 0.2
25/04:30pm 5.6 4.3 4.1 90 0.7 CALM 0 0 0 0 1021.4 1022.0 0.2
25/04:00pm 6.1 4.8 4.1 87 0.9 CALM 0 0 0 0 1021.5 1022.2 0.2
25/03:30pm 6.9 5.2 4.2 83 1.2 NW 2 4 1 2 1021.4 1022.0 0.2
25/03:00pm 6.6 4.4 3.6 81 1.3 WNW 4 9 2 5 1021.2 1021.8 0.2
25/02:30pm 6.8 4.9 4.8 87 0.9 WNW 4 7 2 4 1021.2 1021.8 0.2
25/02:00pm 6.2 3.9 4.7 90 0.7 NW 6 11 3 6 1021.2 1021.8 0.2
25/01:30pm 5.3 2.9 4.4 94 0.4 NW 6 9 3 5 1021.4 1022.0 0.2
25/01:00pm 4.9 2.9 4.3 96 0.3 NW 4 7 2 4 1021.5 1022.2 0.0
25/12:30pm 4.7 2.3 4.1 96 0.3 NW 6 9 3 5 1021.7 1022.4 0.0
25/12:00pm 4.8 2.8 4.4 97 0.2 NW 4 7 2 4 1021.9 1022.6 0.0
25/11:30am 4.3 2.2 3.9 97 0.2 NW 4 9 2 5 1021.9 1022.6 0.0
25/11:00am 3.7 1.1 3.3 97 0.2 NW 6 7 3 4 1021.9 1022.6 0.0
25/10:30am 3.6 1.4 3.2 97 0.2 W 4 7 2 4 1021.9 1022.6 0.0
25/10:00am 3.0 0.3 2.6 97 0.2 NW 6 9 3 5 1021.5 1022.2 0.0
25/09:30am 3.3 1.0 2.9 97 0.2 WNW 4 9 2 5 1021.4 1022.0 0.0
25/09:00am 3.7 1.9 3.3 97 0.2 WNW 2 6 1 3 1020.7 1021.4 8.4
25/08:30am 3.0 1.1 2.6 97 0.2 NW 2 6 1 3 1020.5 1021.2 8.4
25/08:00am 2.7 0.7 2.3 97 0.2 WNW 2 4 1 2 1020.4 1021.1 8.2
25/07:30am 2.6 1.0 2.2 97 0.2 CALM 0 4 0 2 1020.0 1020.7 7.8
25/07:00am 2.6 0.6 2.2 97 0.2 WNW 2 7 1 4 1019.9 1020.6 7.6
25/06:30am 2.7 0.7 2.3 97 0.2 W 2 6 1 3 1019.5 1020.1 7.6
25/06:00am 2.4 0.0 2.0 97 0.2 WNW 4 9 2 5 1019.2 1019.8 7.6
25/05:30am 2.4 0.3 2.0 97 0.2 WNW 2 6 1 3 1018.9 1019.5 7.0
25/05:00am 2.5 0.5 2.1 97 0.2 WNW 2 6 1 3 1018.6 1019.3 7.0
25/04:30am 2.3 -0.1 1.9 97 0.2 W 4 9 2 5 1018.4 1019.1 7.0
25/04:00am 2.2 -0.3 1.8 97 0.2 WNW 4 6 2 3 1018.1 1018.8 7.0
25/03:30am 2.2 -0.3 1.6 96 0.2 W 4 6 2 3 1018.0 1018.6 6.8
25/03:00am 2.3 0.2 1.7 96 0.2 W 2 6 1 3 1017.9 1018.5 6.8
25/02:30am 2.5 0.1 1.9 96 0.2 WNW 4 11 2 6 1017.6 1018.2 6.8
25/02:00am 2.4 -0.1 1.8 96 0.2 WNW 4 9 2 5 1017.3 1017.9 6.8
25/01:30am 2.4 -0.1 1.8 96 0.2 WNW 4 9 2 5 1016.9 1017.5 6.8
25/01:00am 2.5 0.1 1.9 96 0.2 W 4 7 2 4 1016.6 1017.3 6.6
25/12:30am 2.3 -0.2 1.7 96 0.2 W 4 11 2 6 1016.4 1017.0 6.6
25/12:00am 2.2 -0.3 1.6 96 0.2 W 4 9 2 5 1016.1 1016.7 5.2
 
Date/Time
EST
Temp
°C
App
Temp
°C
Dew
Point
°C
Rel
Hum
%
Delta-T
°C
Wind Press
QNH
hPa
Press
MSL
hPa
Rain since
9am
mm
Dir  Spd
km/h
Gust
km/h
Spd
kts
Gust
kts
24/11:30pm 1.9 -0.6 1.3 96 0.2 W 4 11 2 6 1015.7 1016.3 5.2
24/11:00pm 2.4 -0.1 1.8 96 0.2 W 4 6 2 3 1015.6 1016.2 4.8
24/10:30pm 2.4 -0.1 1.8 96 0.2 W 4 6 2 3 1015.3 1015.9 4.8
24/10:00pm 2.1 -0.4 1.4 95 0.3 WNW 4 7 2 4 1014.9 1015.5 4.8
24/09:30pm 1.9 -1.0 1.2 95 0.3 W 6 11 3 6 1014.3 1014.9 4.8
24/09:00pm 1.6 -1.0 0.9 95 0.3 W 4 7 2 4 1014.0 1014.6 3.8
24/08:30pm 1.4 -1.2 0.7 95 0.3 W 4 7 2 4 1013.4 1014.0 3.4
24/08:00pm 1.5 -1.1 0.8 95 0.3 WNW 4 6 2 3 1013.1 1013.6 2.8
24/07:30pm 1.6 -1.0 0.9 95 0.3 W 4 6 2 3 1012.3 1012.9 2.8
24/07:00pm 2.1 -0.4 1.4 95 0.3 W 4 13 2 7 1011.7 1012.3 2.8
24/06:30pm 2.1 -0.4 1.4 95 0.3 W 4 9 2 5 1011.4 1011.9 2.8
24/06:00pm 2.2 -0.3 1.5 95 0.3 W 4 9 2 5 1010.8 1011.3 2.8

Latest Capital City Observations: Canberra | Sydney | Melbourne | Brisbane | Adelaide | Perth | Hobart | Darwin

Other Formats:

Comma delimited format used in spreadsheet applications
http://www.bom.gov.au/fwo/IDV60901/IDV60901.94872.axf

JavaScript Object Notation format (JSON) in row-major order
http://www.bom.gov.au/fwo/IDV60901/IDV60901.94872.json